sensor_id;sensor_type;location;lat;lon;timestamp;P1;durP1;ratioP1;P2;durP2;ratioP2
3343;SDS011;1685;53.104;8.228;2024-03-02T00:01:05;16.53;;;10.00;;
3343;SDS011;1685;53.104;8.228;2024-03-02T00:03:34;15.47;;;10.93;;
3343;SDS011;1685;53.104;8.228;2024-03-02T00:06:06;13.90;;;10.20;;
3343;SDS011;1685;53.104;8.228;2024-03-02T00:08:33;18.83;;;9.73;;
3343;SDS011;1685;53.104;8.228;2024-03-02T00:11:01;16.50;;;9.97;;
3343;SDS011;1685;53.104;8.228;2024-03-02T00:13:29;14.70;;;9.77;;
3343;SDS011;1685;53.104;8.228;2024-03-02T00:16:00;13.70;;;10.47;;
3343;SDS011;1685;53.104;8.228;2024-03-02T00:18:30;13.27;;;9.20;;
3343;SDS011;1685;53.104;8.228;2024-03-02T00:21:00;12.03;;;9.87;;
3343;SDS011;1685;53.104;8.228;2024-03-02T00:23:29;14.50;;;9.67;;
3343;SDS011;1685;53.104;8.228;2024-03-02T00:25:57;15.10;;;10.40;;
3343;SDS011;1685;53.104;8.228;2024-03-02T00:28:26;15.13;;;9.90;;
3343;SDS011;1685;53.104;8.228;2024-03-02T00:31:01;12.87;;;9.97;;
3343;SDS011;1685;53.104;8.228;2024-03-02T00:33:30;16.70;;;10.50;;
3343;SDS011;1685;53.104;8.228;2024-03-02T00:36:05;12.30;;;9.40;;
3343;SDS011;1685;53.104;8.228;2024-03-02T00:38:33;15.17;;;10.23;;
3343;SDS011;1685;53.104;8.228;2024-03-02T00:41:03;12.70;;;9.40;;
3343;SDS011;1685;53.104;8.228;2024-03-02T00:43:42;14.23;;;9.47;;
3343;SDS011;1685;53.104;8.228;2024-03-02T00:46:15;10.77;;;8.10;;
3343;SDS011;1685;53.104;8.228;2024-03-02T00:48:48;13.53;;;9.00;;
3343;SDS011;1685;53.104;8.228;2024-03-02T00:51:20;14.77;;;10.97;;
3343;SDS011;1685;53.104;8.228;2024-03-02T00:53:49;13.47;;;8.73;;
3343;SDS011;1685;53.104;8.228;2024-03-02T00:56:16;15.77;;;10.80;;
3343;SDS011;1685;53.104;8.228;2024-03-02T00:58:43;13.77;;;10.33;;
3343;SDS011;1685;53.104;8.228;2024-03-02T01:01:12;14.30;;;9.60;;
3343;SDS011;1685;53.104;8.228;2024-03-02T01:03:39;12.27;;;9.80;;
3343;SDS011;1685;53.104;8.228;2024-03-02T01:06:07;10.37;;;8.63;;
3343;SDS011;1685;53.104;8.228;2024-03-02T01:08:36;9.53;;;7.80;;
3343;SDS011;1685;53.104;8.228;2024-03-02T01:11:03;11.43;;;8.80;;
3343;SDS011;1685;53.104;8.228;2024-03-02T01:13:31;12.23;;;8.40;;
3343;SDS011;1685;53.104;8.228;2024-03-02T01:15:58;10.83;;;8.47;;
3343;SDS011;1685;53.104;8.228;2024-03-02T01:18:25;10.90;;;8.40;;
3343;SDS011;1685;53.104;8.228;2024-03-02T01:20:52;12.63;;;9.10;;
3343;SDS011;1685;53.104;8.228;2024-03-02T01:23:21;11.70;;;8.47;;
3343;SDS011;1685;53.104;8.228;2024-03-02T01:25:49;8.70;;;7.80;;
3343;SDS011;1685;53.104;8.228;2024-03-02T01:28:16;16.53;;;8.53;;
3343;SDS011;1685;53.104;8.228;2024-03-02T01:30:44;13.37;;;8.23;;
3343;SDS011;1685;53.104;8.228;2024-03-02T01:33:11;11.50;;;8.23;;
3343;SDS011;1685;53.104;8.228;2024-03-02T01:35:38;12.93;;;8.17;;
3343;SDS011;1685;53.104;8.228;2024-03-02T01:38:05;10.73;;;7.93;;
3343;SDS011;1685;53.104;8.228;2024-03-02T01:40:33;12.43;;;9.00;;
3343;SDS011;1685;53.104;8.228;2024-03-02T01:43:01;10.63;;;8.50;;
3343;SDS011;1685;53.104;8.228;2024-03-02T01:45:28;13.30;;;8.37;;
3343;SDS011;1685;53.104;8.228;2024-03-02T01:47:55;12.63;;;9.10;;
3343;SDS011;1685;53.104;8.228;2024-03-02T01:50:26;16.70;;;8.53;;
3343;SDS011;1685;53.104;8.228;2024-03-02T01:52:53;13.43;;;9.33;;
3343;SDS011;1685;53.104;8.228;2024-03-02T01:55:21;12.10;;;9.07;;
3343;SDS011;1685;53.104;8.228;2024-03-02T01:57:48;12.87;;;8.77;;
3343;SDS011;1685;53.104;8.228;2024-03-02T02:00:18;13.50;;;8.53;;
3343;SDS011;1685;53.104;8.228;2024-03-02T02:02:46;15.70;;;8.93;;
3343;SDS011;1685;53.104;8.228;2024-03-02T02:05:13;17.47;;;9.60;;
3343;SDS011;1685;53.104;8.228;2024-03-02T02:07:40;10.97;;;9.13;;
3343;SDS011;1685;53.104;8.228;2024-03-02T02:10:08;12.23;;;8.83;;
3343;SDS011;1685;53.104;8.228;2024-03-02T02:12:35;14.07;;;9.20;;
3343;SDS011;1685;53.104;8.228;2024-03-02T02:15:03;15.50;;;9.70;;
3343;SDS011;1685;53.104;8.228;2024-03-02T02:17:32;14.33;;;9.50;;
3343;SDS011;1685;53.104;8.228;2024-03-02T02:19:59;14.07;;;9.73;;
3343;SDS011;1685;53.104;8.228;2024-03-02T02:22:27;13.00;;;9.60;;
3343;SDS011;1685;53.104;8.228;2024-03-02T02:24:54;14.43;;;10.53;;
3343;SDS011;1685;53.104;8.228;2024-03-02T02:27:21;10.73;;;8.13;;
3343;SDS011;1685;53.104;8.228;2024-03-02T02:29:48;11.20;;;9.10;;
3343;SDS011;1685;53.104;8.228;2024-03-02T02:32:15;10.03;;;8.60;;
3343;SDS011;1685;53.104;8.228;2024-03-02T02:34:42;11.20;;;8.70;;
3343;SDS011;1685;53.104;8.228;2024-03-02T02:37:09;13.07;;;9.87;;
3343;SDS011;1685;53.104;8.228;2024-03-02T02:39:38;11.10;;;8.60;;
3343;SDS011;1685;53.104;8.228;2024-03-02T02:42:05;10.90;;;8.80;;
3343;SDS011;1685;53.104;8.228;2024-03-02T02:44:32;11.83;;;8.73;;
3343;SDS011;1685;53.104;8.228;2024-03-02T02:46:59;11.40;;;8.67;;
3343;SDS011;1685;53.104;8.228;2024-03-02T02:49:26;12.60;;;8.40;;
3343;SDS011;1685;53.104;8.228;2024-03-02T02:51:53;11.23;;;8.03;;
3343;SDS011;1685;53.104;8.228;2024-03-02T02:54:20;14.33;;;8.90;;
3343;SDS011;1685;53.104;8.228;2024-03-02T02:56:49;11.27;;;7.80;;
3343;SDS011;1685;53.104;8.228;2024-03-02T02:59:16;14.77;;;9.27;;
3343;SDS011;1685;53.104;8.228;2024-03-02T03:01:43;17.00;;;8.43;;
3343;SDS011;1685;53.104;8.228;2024-03-02T03:04:10;9.90;;;8.10;;
3343;SDS011;1685;53.104;8.228;2024-03-02T03:06:38;12.77;;;9.10;;
3343;SDS011;1685;53.104;8.228;2024-03-02T03:09:05;11.30;;;7.90;;
3343;SDS011;1685;53.104;8.228;2024-03-02T03:11:32;11.10;;;8.50;;
3343;SDS011;1685;53.104;8.228;2024-03-02T03:14:01;11.10;;;8.50;;
3343;SDS011;1685;53.104;8.228;2024-03-02T03:16:28;10.63;;;8.23;;
3343;SDS011;1685;53.104;8.228;2024-03-02T03:18:55;11.63;;;9.00;;
3343;SDS011;1685;53.104;8.228;2024-03-02T03:21:22;11.90;;;9.03;;
3343;SDS011;1685;53.104;8.228;2024-03-02T03:23:49;11.37;;;8.97;;
3343;SDS011;1685;53.104;8.228;2024-03-02T03:26:16;12.00;;;8.53;;
3343;SDS011;1685;53.104;8.228;2024-03-02T03:28:44;10.00;;;8.20;;
3343;SDS011;1685;53.104;8.228;2024-03-02T03:31:12;12.87;;;9.10;;
3343;SDS011;1685;53.104;8.228;2024-03-02T03:33:39;11.20;;;8.30;;
3343;SDS011;1685;53.104;8.228;2024-03-02T03:36:06;10.23;;;8.50;;
3343;SDS011;1685;53.104;8.228;2024-03-02T03:38:33;11.23;;;9.23;;
3343;SDS011;1685;53.104;8.228;2024-03-02T03:41:01;12.03;;;8.63;;
3343;SDS011;1685;53.104;8.228;2024-03-02T03:43:28;14.60;;;9.00;;
3343;SDS011;1685;53.104;8.228;2024-03-02T03:45:55;10.33;;;7.83;;
3343;SDS011;1685;53.104;8.228;2024-03-02T03:48:24;11.33;;;9.03;;
3343;SDS011;1685;53.104;8.228;2024-03-02T03:50:55;14.87;;;9.93;;
3343;SDS011;1685;53.104;8.228;2024-03-02T03:53:22;11.60;;;8.77;;
3343;SDS011;1685;53.104;8.228;2024-03-02T03:55:49;13.40;;;8.50;;
3343;SDS011;1685;53.104;8.228;2024-03-02T03:58:16;9.83;;;8.37;;
3343;SDS011;1685;53.104;8.228;2024-03-02T04:00:45;11.43;;;9.00;;
3343;SDS011;1685;53.104;8.228;2024-03-02T04:03:12;12.73;;;9.33;;
3343;SDS011;1685;53.104;8.228;2024-03-02T04:05:41;11.53;;;9.07;;
3343;SDS011;1685;53.104;8.228;2024-03-02T04:08:08;12.10;;;9.03;;
3343;SDS011;1685;53.104;8.228;2024-03-02T04:10:36;11.40;;;8.77;;
3343;SDS011;1685;53.104;8.228;2024-03-02T04:13:05;13.40;;;8.57;;
3343;SDS011;1685;53.104;8.228;2024-03-02T04:15:32;12.10;;;8.63;;
3343;SDS011;1685;53.104;8.228;2024-03-02T04:17:59;13.80;;;10.30;;
3343;SDS011;1685;53.104;8.228;2024-03-02T04:20:26;11.17;;;8.57;;
3343;SDS011;1685;53.104;8.228;2024-03-02T04:22:56;12.20;;;8.10;;
3343;SDS011;1685;53.104;8.228;2024-03-02T04:25:23;14.20;;;10.80;;
3343;SDS011;1685;53.104;8.228;2024-03-02T04:27:50;13.50;;;9.17;;
3343;SDS011;1685;53.104;8.228;2024-03-02T04:30:17;12.00;;;8.90;;
3343;SDS011;1685;53.104;8.228;2024-03-02T04:32:44;11.23;;;9.40;;
3343;SDS011;1685;53.104;8.228;2024-03-02T04:35:12;14.23;;;10.13;;
3343;SDS011;1685;53.104;8.228;2024-03-02T04:37:39;11.70;;;9.23;;
3343;SDS011;1685;53.104;8.228;2024-03-02T04:40:08;11.83;;;9.47;;
3343;SDS011;1685;53.104;8.228;2024-03-02T04:42:36;12.50;;;9.53;;
3343;SDS011;1685;53.104;8.228;2024-03-02T04:45:03;12.13;;;9.30;;
3343;SDS011;1685;53.104;8.228;2024-03-02T04:47:30;12.27;;;8.77;;
3343;SDS011;1685;53.104;8.228;2024-03-02T04:49:58;13.80;;;9.83;;
3343;SDS011;1685;53.104;8.228;2024-03-02T04:52:25;13.73;;;9.23;;
3343;SDS011;1685;53.104;8.228;2024-03-02T04:54:52;14.67;;;10.07;;
3343;SDS011;1685;53.104;8.228;2024-03-02T04:57:39;11.80;;;9.03;;
3343;SDS011;1685;53.104;8.228;2024-03-02T05:00:06;15.40;;;9.30;;
3343;SDS011;1685;53.104;8.228;2024-03-02T05:02:33;13.87;;;10.10;;
3343;SDS011;1685;53.104;8.228;2024-03-02T05:05:01;14.90;;;10.37;;
3343;SDS011;1685;53.104;8.228;2024-03-02T05:07:28;14.13;;;9.93;;
3343;SDS011;1685;53.104;8.228;2024-03-02T05:09:55;14.97;;;10.20;;
3343;SDS011;1685;53.104;8.228;2024-03-02T05:12:22;14.90;;;10.23;;
3343;SDS011;1685;53.104;8.228;2024-03-02T05:15:07;13.70;;;9.47;;
3343;SDS011;1685;53.104;8.228;2024-03-02T05:17:35;13.50;;;9.60;;
3343;SDS011;1685;53.104;8.228;2024-03-02T05:20:02;15.27;;;10.73;;
3343;SDS011;1685;53.104;8.228;2024-03-02T05:22:30;12.07;;;9.40;;
3343;SDS011;1685;53.104;8.228;2024-03-02T05:24:59;13.70;;;10.23;;
3343;SDS011;1685;53.104;8.228;2024-03-02T05:27:26;14.80;;;10.23;;
3343;SDS011;1685;53.104;8.228;2024-03-02T05:29:53;13.70;;;9.77;;
3343;SDS011;1685;53.104;8.228;2024-03-02T05:32:21;12.20;;;10.10;;
3343;SDS011;1685;53.104;8.228;2024-03-02T05:34:48;13.73;;;10.23;;
3343;SDS011;1685;53.104;8.228;2024-03-02T05:37:15;13.63;;;10.20;;
3343;SDS011;1685;53.104;8.228;2024-03-02T05:39:43;11.77;;;9.43;;
3343;SDS011;1685;53.104;8.228;2024-03-02T05:42:10;13.67;;;10.23;;
3343;SDS011;1685;53.104;8.228;2024-03-02T05:44:37;12.00;;;10.00;;
3343;SDS011;1685;53.104;8.228;2024-03-02T05:47:05;13.80;;;9.83;;
3343;SDS011;1685;53.104;8.228;2024-03-02T05:49:35;12.63;;;9.27;;
3343;SDS011;1685;53.104;8.228;2024-03-02T05:52:02;13.33;;;10.67;;
3343;SDS011;1685;53.104;8.228;2024-03-02T05:54:29;20.27;;;10.30;;
3343;SDS011;1685;53.104;8.228;2024-03-02T05:56:56;13.77;;;9.17;;
3343;SDS011;1685;53.104;8.228;2024-03-02T05:59:41;13.43;;;10.83;;
3343;SDS011;1685;53.104;8.228;2024-03-02T06:02:08;12.37;;;9.13;;
3343;SDS011;1685;53.104;8.228;2024-03-02T06:04:37;15.83;;;11.03;;
3343;SDS011;1685;53.104;8.228;2024-03-02T06:07:04;12.97;;;10.57;;
3343;SDS011;1685;53.104;8.228;2024-03-02T06:09:31;14.70;;;10.23;;
3343;SDS011;1685;53.104;8.228;2024-03-02T06:11:58;17.00;;;10.47;;
3343;SDS011;1685;53.104;8.228;2024-03-02T06:14:25;13.77;;;9.90;;
3343;SDS011;1685;53.104;8.228;2024-03-02T06:16:52;15.03;;;10.67;;
3343;SDS011;1685;53.104;8.228;2024-03-02T06:19:20;13.70;;;10.40;;
3343;SDS011;1685;53.104;8.228;2024-03-02T06:21:48;15.03;;;10.60;;
3343;SDS011;1685;53.104;8.228;2024-03-02T06:24:15;16.70;;;9.93;;
3343;SDS011;1685;53.104;8.228;2024-03-02T06:26:42;15.30;;;10.37;;
3343;SDS011;1685;53.104;8.228;2024-03-02T06:29:09;17.23;;;10.63;;
3343;SDS011;1685;53.104;8.228;2024-03-02T06:31:36;10.57;;;9.00;;
3343;SDS011;1685;53.104;8.228;2024-03-02T06:34:04;14.70;;;10.30;;
3343;SDS011;1685;53.104;8.228;2024-03-02T06:36:31;16.30;;;10.73;;
3343;SDS011;1685;53.104;8.228;2024-03-02T06:38:59;14.20;;;10.90;;
3343;SDS011;1685;53.104;8.228;2024-03-02T06:41:26;12.93;;;10.27;;
3343;SDS011;1685;53.104;8.228;2024-03-02T06:43:53;14.87;;;10.67;;
3343;SDS011;1685;53.104;8.228;2024-03-02T06:46:24;13.43;;;10.30;;
3343;SDS011;1685;53.104;8.228;2024-03-02T06:48:51;19.07;;;10.53;;
3343;SDS011;1685;53.104;8.228;2024-03-02T06:51:18;14.60;;;11.07;;
3343;SDS011;1685;53.104;8.228;2024-03-02T06:53:46;15.40;;;11.27;;
3343;SDS011;1685;53.104;8.228;2024-03-02T06:56:14;15.07;;;12.10;;
3343;SDS011;1685;53.104;8.228;2024-03-02T06:58:41;14.20;;;10.33;;
3343;SDS011;1685;53.104;8.228;2024-03-02T07:01:09;16.80;;;11.07;;
3343;SDS011;1685;53.104;8.228;2024-03-02T07:03:36;15.83;;;12.10;;
3343;SDS011;1685;53.104;8.228;2024-03-02T07:06:04;16.37;;;11.13;;
3343;SDS011;1685;53.104;8.228;2024-03-02T07:08:31;14.40;;;11.10;;
3343;SDS011;1685;53.104;8.228;2024-03-02T07:10:58;15.63;;;11.47;;
3343;SDS011;1685;53.104;8.228;2024-03-02T07:13:27;15.93;;;11.87;;
3343;SDS011;1685;53.104;8.228;2024-03-02T07:15:54;16.20;;;12.70;;
3343;SDS011;1685;53.104;8.228;2024-03-02T07:18:47;18.40;;;13.50;;
3343;SDS011;1685;53.104;8.228;2024-03-02T07:21:17;23.80;;;12.53;;
3343;SDS011;1685;53.104;8.228;2024-03-02T07:23:44;18.20;;;12.07;;
3343;SDS011;1685;53.104;8.228;2024-03-02T07:26:11;17.50;;;12.73;;
3343;SDS011;1685;53.104;8.228;2024-03-02T07:28:41;14.13;;;11.07;;
3343;SDS011;1685;53.104;8.228;2024-03-02T07:31:09;16.00;;;12.13;;
3343;SDS011;1685;53.104;8.228;2024-03-02T07:33:36;16.30;;;11.63;;
3343;SDS011;1685;53.104;8.228;2024-03-02T07:36:03;17.10;;;12.37;;
3343;SDS011;1685;53.104;8.228;2024-03-02T07:38:31;22.73;;;13.23;;
3343;SDS011;1685;53.104;8.228;2024-03-02T07:40:59;20.20;;;12.20;;
3343;SDS011;1685;53.104;8.228;2024-03-02T07:43:26;15.97;;;12.03;;
3343;SDS011;1685;53.104;8.228;2024-03-02T07:45:55;22.47;;;12.63;;
3343;SDS011;1685;53.104;8.228;2024-03-02T07:48:22;17.37;;;13.40;;
3343;SDS011;1685;53.104;8.228;2024-03-02T07:50:50;15.43;;;12.03;;
3343;SDS011;1685;53.104;8.228;2024-03-02T07:53:17;15.80;;;11.83;;
3343;SDS011;1685;53.104;8.228;2024-03-02T07:55:44;17.57;;;12.03;;
3343;SDS011;1685;53.104;8.228;2024-03-02T07:58:11;18.60;;;12.70;;
3343;SDS011;1685;53.104;8.228;2024-03-02T08:00:39;17.47;;;13.13;;
3343;SDS011;1685;53.104;8.228;2024-03-02T08:03:08;16.43;;;11.97;;
3343;SDS011;1685;53.104;8.228;2024-03-02T08:05:36;24.23;;;12.53;;
3343;SDS011;1685;53.104;8.228;2024-03-02T08:08:03;24.90;;;13.07;;
3343;SDS011;1685;53.104;8.228;2024-03-02T08:10:31;15.37;;;12.10;;
3343;SDS011;1685;53.104;8.228;2024-03-02T08:12:58;19.40;;;12.97;;
3343;SDS011;1685;53.104;8.228;2024-03-02T08:15:25;15.97;;;12.40;;
3343;SDS011;1685;53.104;8.228;2024-03-02T08:17:53;17.43;;;12.07;;
3343;SDS011;1685;53.104;8.228;2024-03-02T08:20:22;16.83;;;12.07;;
3343;SDS011;1685;53.104;8.228;2024-03-02T08:22:49;14.43;;;10.43;;
3343;SDS011;1685;53.104;8.228;2024-03-02T08:25:16;16.37;;;12.10;;
3343;SDS011;1685;53.104;8.228;2024-03-02T08:27:44;15.30;;;11.53;;
3343;SDS011;1685;53.104;8.228;2024-03-02T08:30:12;17.60;;;11.60;;
3343;SDS011;1685;53.104;8.228;2024-03-02T08:32:39;15.47;;;11.57;;
3343;SDS011;1685;53.104;8.228;2024-03-02T08:35:06;28.33;;;10.00;;
3343;SDS011;1685;53.104;8.228;2024-03-02T08:37:35;16.47;;;11.13;;
3343;SDS011;1685;53.104;8.228;2024-03-02T08:40:05;16.07;;;10.80;;
3343;SDS011;1685;53.104;8.228;2024-03-02T08:42:33;16.70;;;10.77;;
3343;SDS011;1685;53.104;8.228;2024-03-02T08:45:00;15.73;;;12.10;;
3343;SDS011;1685;53.104;8.228;2024-03-02T08:47:27;15.50;;;10.37;;
3343;SDS011;1685;53.104;8.228;2024-03-02T08:49:55;13.87;;;10.40;;
3343;SDS011;1685;53.104;8.228;2024-03-02T08:52:22;12.03;;;9.43;;
3343;SDS011;1685;53.104;8.228;2024-03-02T08:54:50;12.60;;;10.20;;
3343;SDS011;1685;53.104;8.228;2024-03-02T08:57:17;13.07;;;9.80;;
3343;SDS011;1685;53.104;8.228;2024-03-02T08:59:44;14.33;;;9.57;;
3343;SDS011;1685;53.104;8.228;2024-03-02T09:02:12;13.47;;;9.27;;
3343;SDS011;1685;53.104;8.228;2024-03-02T09:04:39;12.83;;;10.17;;
3343;SDS011;1685;53.104;8.228;2024-03-02T09:07:07;12.57;;;8.90;;
3343;SDS011;1685;53.104;8.228;2024-03-02T09:09:34;10.30;;;8.23;;
3343;SDS011;1685;53.104;8.228;2024-03-02T09:12:02;10.87;;;9.13;;
3343;SDS011;1685;53.104;8.228;2024-03-02T09:14:29;11.77;;;9.70;;
3343;SDS011;1685;53.104;8.228;2024-03-02T09:16:58;10.77;;;9.03;;
3343;SDS011;1685;53.104;8.228;2024-03-02T09:19:24;10.53;;;9.07;;
3343;SDS011;1685;53.104;8.228;2024-03-02T09:21:52;11.63;;;8.83;;
3343;SDS011;1685;53.104;8.228;2024-03-02T09:24:20;16.47;;;9.50;;
3343;SDS011;1685;53.104;8.228;2024-03-02T09:26:47;11.70;;;8.23;;
3343;SDS011;1685;53.104;8.228;2024-03-02T09:29:16;12.27;;;8.80;;
3343;SDS011;1685;53.104;8.228;2024-03-02T09:31:45;11.83;;;7.90;;
3343;SDS011;1685;53.104;8.228;2024-03-02T09:34:12;10.07;;;8.63;;
3343;SDS011;1685;53.104;8.228;2024-03-02T09:36:40;11.90;;;9.17;;
3343;SDS011;1685;53.104;8.228;2024-03-02T09:39:08;11.20;;;7.67;;
3343;SDS011;1685;53.104;8.228;2024-03-02T09:41:35;11.37;;;8.50;;
3343;SDS011;1685;53.104;8.228;2024-03-02T09:44:03;9.57;;;7.90;;
3343;SDS011;1685;53.104;8.228;2024-03-02T09:46:32;11.37;;;7.33;;
3343;SDS011;1685;53.104;8.228;2024-03-02T09:49:01;11.80;;;8.07;;
3343;SDS011;1685;53.104;8.228;2024-03-02T09:51:28;9.40;;;7.67;;
3343;SDS011;1685;53.104;8.228;2024-03-02T09:53:55;11.17;;;7.47;;
3343;SDS011;1685;53.104;8.228;2024-03-02T09:56:22;7.27;;;6.43;;
3343;SDS011;1685;53.104;8.228;2024-03-02T09:58:50;8.23;;;6.33;;
3343;SDS011;1685;53.104;8.228;2024-03-02T10:01:17;7.33;;;6.50;;
3343;SDS011;1685;53.104;8.228;2024-03-02T10:03:45;10.37;;;6.30;;
3343;SDS011;1685;53.104;8.228;2024-03-02T10:06:19;7.77;;;6.80;;
3343;SDS011;1685;53.104;8.228;2024-03-02T10:08:46;8.60;;;6.87;;
3343;SDS011;1685;53.104;8.228;2024-03-02T10:11:25;6.47;;;5.83;;
3343;SDS011;1685;53.104;8.228;2024-03-02T10:14:03;6.57;;;5.67;;
3343;SDS011;1685;53.104;8.228;2024-03-02T10:16:35;8.60;;;6.40;;
3343;SDS011;1685;53.104;8.228;2024-03-02T10:19:16;9.23;;;6.37;;
3343;SDS011;1685;53.104;8.228;2024-03-02T10:21:44;7.30;;;5.60;;
3343;SDS011;1685;53.104;8.228;2024-03-02T10:24:12;7.20;;;5.27;;
3343;SDS011;1685;53.104;8.228;2024-03-02T10:26:39;9.40;;;5.20;;
3343;SDS011;1685;53.104;8.228;2024-03-02T10:29:07;5.63;;;4.60;;
3343;SDS011;1685;53.104;8.228;2024-03-02T10:31:35;8.43;;;5.97;;
3343;SDS011;1685;53.104;8.228;2024-03-02T10:34:03;7.83;;;5.10;;
3343;SDS011;1685;53.104;8.228;2024-03-02T10:36:32;5.77;;;5.00;;
3343;SDS011;1685;53.104;8.228;2024-03-02T10:39:01;7.07;;;5.00;;
3343;SDS011;1685;53.104;8.228;2024-03-02T10:41:29;6.40;;;5.13;;
3343;SDS011;1685;53.104;8.228;2024-03-02T10:43:59;5.23;;;4.73;;
3343;SDS011;1685;53.104;8.228;2024-03-02T10:46:29;7.20;;;5.03;;
3343;SDS011;1685;53.104;8.228;2024-03-02T10:48:57;6.00;;;3.93;;
3343;SDS011;1685;53.104;8.228;2024-03-02T10:51:24;5.47;;;4.97;;
3343;SDS011;1685;53.104;8.228;2024-03-02T10:53:54;5.13;;;4.63;;
3343;SDS011;1685;53.104;8.228;2024-03-02T10:56:22;8.47;;;5.43;;
3343;SDS011;1685;53.104;8.228;2024-03-02T10:58:55;6.53;;;5.53;;
3343;SDS011;1685;53.104;8.228;2024-03-02T11:01:28;4.87;;;4.30;;
3343;SDS011;1685;53.104;8.228;2024-03-02T11:03:57;4.97;;;4.57;;
3343;SDS011;1685;53.104;8.228;2024-03-02T11:06:25;4.80;;;4.40;;
3343;SDS011;1685;53.104;8.228;2024-03-02T11:08:56;10.10;;;4.43;;
3343;SDS011;1685;53.104;8.228;2024-03-02T11:11:29;5.40;;;4.27;;
3343;SDS011;1685;53.104;8.228;2024-03-02T11:14:00;4.40;;;4.07;;
3343;SDS011;1685;53.104;8.228;2024-03-02T11:16:33;6.47;;;4.60;;
3343;SDS011;1685;53.104;8.228;2024-03-02T11:19:02;4.50;;;4.10;;
3343;SDS011;1685;53.104;8.228;2024-03-02T11:21:30;4.40;;;4.10;;
3343;SDS011;1685;53.104;8.228;2024-03-02T11:24:00;5.03;;;4.30;;
3343;SDS011;1685;53.104;8.228;2024-03-02T11:26:27;10.70;;;6.23;;
3343;SDS011;1685;53.104;8.228;2024-03-02T11:28:55;8.17;;;6.87;;
3343;SDS011;1685;53.104;8.228;2024-03-02T11:31:36;7.87;;;5.60;;
3343;SDS011;1685;53.104;8.228;2024-03-02T11:34:28;13.00;;;5.80;;
3343;SDS011;1685;53.104;8.228;2024-03-02T11:36:55;6.70;;;5.10;;
3343;SDS011;1685;53.104;8.228;2024-03-02T11:39:25;5.83;;;5.23;;
3343;SDS011;1685;53.104;8.228;2024-03-02T11:41:52;9.30;;;5.87;;
3343;SDS011;1685;53.104;8.228;2024-03-02T11:44:19;5.07;;;4.57;;
3343;SDS011;1685;53.104;8.228;2024-03-02T11:46:46;8.13;;;5.43;;
3343;SDS011;1685;53.104;8.228;2024-03-02T11:49:20;9.50;;;5.13;;
3343;SDS011;1685;53.104;8.228;2024-03-02T11:52:03;7.67;;;5.10;;
3343;SDS011;1685;53.104;8.228;2024-03-02T11:54:33;7.97;;;5.27;;
3343;SDS011;1685;53.104;8.228;2024-03-02T11:57:01;6.60;;;5.73;;
3343;SDS011;1685;53.104;8.228;2024-03-02T11:59:29;9.07;;;5.73;;
3343;SDS011;1685;53.104;8.228;2024-03-02T12:01:56;7.27;;;5.50;;
3343;SDS011;1685;53.104;8.228;2024-03-02T12:04:24;6.53;;;5.87;;
3343;SDS011;1685;53.104;8.228;2024-03-02T12:06:54;5.83;;;5.30;;
3343;SDS011;1685;53.104;8.228;2024-03-02T12:09:21;7.13;;;6.13;;
3343;SDS011;1685;53.104;8.228;2024-03-02T12:12:02;12.40;;;5.70;;
3343;SDS011;1685;53.104;8.228;2024-03-02T12:14:30;7.90;;;5.90;;
3343;SDS011;1685;53.104;8.228;2024-03-02T12:16:57;8.00;;;6.40;;
3343;SDS011;1685;53.104;8.228;2024-03-02T12:19:25;6.80;;;5.60;;
3343;SDS011;1685;53.104;8.228;2024-03-02T12:21:52;9.10;;;6.50;;
3343;SDS011;1685;53.104;8.228;2024-03-02T12:24:20;11.10;;;6.47;;
3343;SDS011;1685;53.104;8.228;2024-03-02T12:26:48;6.53;;;5.77;;
3343;SDS011;1685;53.104;8.228;2024-03-02T12:29:17;7.63;;;6.10;;
3343;SDS011;1685;53.104;8.228;2024-03-02T12:31:45;8.57;;;5.40;;
3343;SDS011;1685;53.104;8.228;2024-03-02T12:34:15;7.77;;;6.00;;
3343;SDS011;1685;53.104;8.228;2024-03-02T12:36:43;6.57;;;5.87;;
3343;SDS011;1685;53.104;8.228;2024-03-02T12:39:12;5.97;;;4.73;;
3343;SDS011;1685;53.104;8.228;2024-03-02T12:41:40;7.57;;;4.70;;
3343;SDS011;1685;53.104;8.228;2024-03-02T12:44:07;6.97;;;5.50;;
3343;SDS011;1685;53.104;8.228;2024-03-02T12:46:36;5.23;;;4.73;;
3343;SDS011;1685;53.104;8.228;2024-03-02T12:49:07;7.90;;;4.83;;
3343;SDS011;1685;53.104;8.228;2024-03-02T12:51:36;6.70;;;5.57;;
3343;SDS011;1685;53.104;8.228;2024-03-02T12:54:05;6.00;;;5.03;;
3343;SDS011;1685;53.104;8.228;2024-03-02T12:56:32;7.30;;;5.20;;
3343;SDS011;1685;53.104;8.228;2024-03-02T12:59:00;6.07;;;4.73;;
3343;SDS011;1685;53.104;8.228;2024-03-02T13:01:27;8.27;;;4.60;;
3343;SDS011;1685;53.104;8.228;2024-03-02T13:03:55;6.30;;;4.50;;
3343;SDS011;1685;53.104;8.228;2024-03-02T13:06:23;5.80;;;5.20;;
3343;SDS011;1685;53.104;8.228;2024-03-02T13:08:53;5.20;;;4.33;;
3343;SDS011;1685;53.104;8.228;2024-03-02T13:11:20;4.07;;;3.73;;
3343;SDS011;1685;53.104;8.228;2024-03-02T13:13:48;4.10;;;3.70;;
3343;SDS011;1685;53.104;8.228;2024-03-02T13:16:16;6.17;;;4.10;;
3343;SDS011;1685;53.104;8.228;2024-03-02T13:18:44;5.03;;;4.53;;
3343;SDS011;1685;53.104;8.228;2024-03-02T13:21:12;5.10;;;4.57;;
3343;SDS011;1685;53.104;8.228;2024-03-02T13:23:39;5.20;;;3.90;;
3343;SDS011;1685;53.104;8.228;2024-03-02T13:26:07;5.20;;;4.70;;
3343;SDS011;1685;53.104;8.228;2024-03-02T13:28:35;4.80;;;4.30;;
3343;SDS011;1685;53.104;8.228;2024-03-02T13:31:03;6.40;;;4.60;;
3343;SDS011;1685;53.104;8.228;2024-03-02T13:33:31;9.20;;;4.17;;
3343;SDS011;1685;53.104;8.228;2024-03-02T13:35:58;4.53;;;4.07;;
3343;SDS011;1685;53.104;8.228;2024-03-02T13:38:28;5.93;;;4.57;;
3343;SDS011;1685;53.104;8.228;2024-03-02T13:40:55;5.03;;;4.40;;
3343;SDS011;1685;53.104;8.228;2024-03-02T13:43:22;4.20;;;3.80;;
3343;SDS011;1685;53.104;8.228;2024-03-02T13:45:49;5.77;;;3.90;;
3343;SDS011;1685;53.104;8.228;2024-03-02T13:48:18;4.70;;;4.20;;
3343;SDS011;1685;53.104;8.228;2024-03-02T13:50:45;4.30;;;3.90;;
3343;SDS011;1685;53.104;8.228;2024-03-02T13:53:12;5.33;;;4.83;;
3343;SDS011;1685;53.104;8.228;2024-03-02T13:55:41;6.10;;;4.80;;
3343;SDS011;1685;53.104;8.228;2024-03-02T13:58:08;5.00;;;4.20;;
3343;SDS011;1685;53.104;8.228;2024-03-02T14:00:36;5.10;;;4.60;;
3343;SDS011;1685;53.104;8.228;2024-03-02T14:03:03;6.00;;;4.77;;
3343;SDS011;1685;53.104;8.228;2024-03-02T14:05:32;4.40;;;3.93;;
3343;SDS011;1685;53.104;8.228;2024-03-02T14:07:59;5.27;;;4.13;;
3343;SDS011;1685;53.104;8.228;2024-03-02T14:10:26;4.70;;;4.30;;
3343;SDS011;1685;53.104;8.228;2024-03-02T14:12:55;5.60;;;4.30;;
3343;SDS011;1685;53.104;8.228;2024-03-02T14:15:22;5.00;;;4.50;;
3343;SDS011;1685;53.104;8.228;2024-03-02T14:17:49;9.23;;;4.60;;
3343;SDS011;1685;53.104;8.228;2024-03-02T14:20:16;6.20;;;5.33;;
3343;SDS011;1685;53.104;8.228;2024-03-02T14:22:47;5.40;;;4.80;;
3343;SDS011;1685;53.104;8.228;2024-03-02T14:25:14;6.37;;;5.77;;
3343;SDS011;1685;53.104;8.228;2024-03-02T14:27:41;7.17;;;5.77;;
3343;SDS011;1685;53.104;8.228;2024-03-02T14:30:10;8.47;;;5.97;;
3343;SDS011;1685;53.104;8.228;2024-03-02T14:32:38;8.93;;;6.10;;
3343;SDS011;1685;53.104;8.228;2024-03-02T14:35:06;8.33;;;6.70;;
3343;SDS011;1685;53.104;8.228;2024-03-02T14:37:35;8.50;;;6.50;;
3343;SDS011;1685;53.104;8.228;2024-03-02T14:40:03;9.70;;;6.93;;
3343;SDS011;1685;53.104;8.228;2024-03-02T14:42:31;7.50;;;6.07;;
3343;SDS011;1685;53.104;8.228;2024-03-02T14:44:59;7.23;;;6.50;;
3343;SDS011;1685;53.104;8.228;2024-03-02T14:47:29;9.00;;;6.60;;
3343;SDS011;1685;53.104;8.228;2024-03-02T14:49:58;7.40;;;6.00;;
3343;SDS011;1685;53.104;8.228;2024-03-02T14:52:25;9.13;;;6.60;;
3343;SDS011;1685;53.104;8.228;2024-03-02T14:54:52;8.23;;;6.80;;
3343;SDS011;1685;53.104;8.228;2024-03-02T14:57:19;6.73;;;5.83;;
3343;SDS011;1685;53.104;8.228;2024-03-02T14:59:46;8.93;;;6.27;;
3343;SDS011;1685;53.104;8.228;2024-03-02T15:02:13;6.30;;;5.30;;
3343;SDS011;1685;53.104;8.228;2024-03-02T15:04:42;6.97;;;5.70;;
3343;SDS011;1685;53.104;8.228;2024-03-02T15:07:10;7.17;;;5.93;;
3343;SDS011;1685;53.104;8.228;2024-03-02T15:09:37;8.57;;;6.47;;